KMCE/MCE METAR and TAF weather

Enter ICAO airport designator
Station Type Date Time Source
KMCE METAR 2021/06/22 22:53 UTC NOAA

KMCE 222253Z AUTO 33007KT 10SM CLR 33/13 A2979 RMK AO2 SLP086 T03330128


Station Type Date Time Source
KMCE Decoded METAR 2021/06/22 22:53 UTC NOAA

MERCED MUNICIPAL AIRPORT, CA, United States (KMCE) 37-17N 120-30W 47M
Jun 22, 2021 - 06:53 PM EDT / 2021.06.22 2253 UTC
Wind: from the NNW (330 degrees) at 8 MPH (7 KT):0
Visibility: 10 mile(s):0
Sky conditions: clear
Temperature: 91.9 F (33.3 C)
Dew Point: 55.0 F (12.8 C)
Relative Humidity: 28%
Pressure (altimeter): 29.79 in. Hg (1008 hPa)
ob: KMCE 222253Z AUTO 33007KT 10SM CLR 33/13 A2979 RMK AO2 SLP086 T03330128
cycle: 23

Station Type Date Time Source
KMCE TAF 2021/06/22 18:22 UTC NOAA

TAF KMCE 221720Z 2218/2318 32008KT P6SM SKC
TEMPO 2302/2306 33013G21KT

Example: see airport list